createdAt,value
2019-02-07T00:04:39.736Z,-4.50
2019-02-07T00:14:50.667Z,-4.50
2019-02-07T00:25:00.748Z,-4.50
2019-02-07T00:35:13.432Z,-4.60
2019-02-07T00:45:24.937Z,-4.50
2019-02-07T00:50:31.143Z,-4.50
2019-02-07T00:55:37.436Z,-4.40
2019-02-07T01:05:48.319Z,-4.50
2019-02-07T01:10:54.067Z,-4.50
2019-02-07T01:16:00.187Z,-4.50
2019-02-07T01:26:11.544Z,-4.40
2019-02-07T01:31:17.698Z,-4.50
2019-02-07T01:36:24.035Z,-4.50
2019-02-07T01:41:29.790Z,-4.40
2019-02-07T01:46:35.691Z,-4.40
2019-02-07T01:51:42.351Z,-4.40
2019-02-07T01:56:47.843Z,-4.50
2019-02-07T02:01:54.052Z,-4.50
2019-02-07T02:07:00.243Z,-4.50
2019-02-07T02:12:05.991Z,-4.50
2019-02-07T02:17:13.503Z,-4.60
2019-02-07T02:22:19.030Z,-4.60
2019-02-07T02:32:29.744Z,-4.90
2019-02-07T02:37:35.280Z,-4.80
2019-02-07T02:47:46.511Z,-4.90
2019-02-07T02:52:53.339Z,-4.90
2019-02-07T02:57:59.086Z,-5.00
2019-02-07T03:03:36.582Z,-4.90
2019-02-07T03:09:01.858Z,-4.90
2019-02-07T03:14:36.642Z,-4.90
2019-02-07T03:20:00.692Z,-4.90
2019-02-07T03:36:15.311Z,-4.80
2019-02-07T03:41:38.283Z,-4.80
2019-02-07T03:57:55.505Z,-4.80
2019-02-07T04:08:51.337Z,-4.80
2019-02-07T04:14:07.815Z,-4.80
2019-02-07T04:19:48.498Z,-4.80
2019-02-07T04:25:13.880Z,-4.90
2019-02-07T04:30:33.132Z,-5.00
2019-02-07T05:03:10.168Z,-5.70
2019-02-07T05:08:52.940Z,-5.90
2019-02-07T05:14:26.180Z,-6.00
2019-02-07T05:25:12.488Z,-6.00
2019-02-07T05:36:09.695Z,-6.00
2019-02-07T05:41:39.930Z,-6.00
2019-02-07T05:47:10.275Z,-6.00
2019-02-07T05:52:26.280Z,-5.90
2019-02-07T05:57:45.155Z,-5.90
2019-02-07T06:13:36.877Z,-5.70
2019-02-07T06:19:16.323Z,-5.80
2019-02-07T06:29:51.859Z,-5.90
2019-02-07T06:35:21.929Z,-5.80
2019-02-07T06:40:45.159Z,-5.90
2019-02-07T06:46:09.410Z,-5.90
2019-02-07T06:51:36.807Z,-5.90
2019-02-07T06:57:00.110Z,-6.10
2019-02-07T07:08:12.551Z,-6.10
2019-02-07T07:18:58.142Z,-6.10
2019-02-07T07:24:28.679Z,-6.10
2019-02-07T07:30:01.949Z,-6.10
2019-02-07T07:35:34.719Z,-6.00
2019-02-07T07:41:02.014Z,-5.90
2019-02-07T07:46:22.575Z,-5.80
2019-02-07T07:52:02.236Z,-5.70
2019-02-07T07:57:26.624Z,-5.70
2019-02-07T08:02:57.370Z,-5.60
2019-02-07T08:08:33.155Z,-5.50
2019-02-07T08:13:52.563Z,-5.50
2019-02-07T08:19:22.862Z,-5.30
2019-02-07T08:24:52.165Z,-5.20
2019-02-07T08:30:36.388Z,-5.20
2019-02-07T08:36:04.192Z,-5.20
2019-02-07T08:47:00.134Z,-5.10
2019-02-07T08:52:31.421Z,-5.10
2019-02-07T08:57:49.132Z,-5.00
2019-02-07T09:03:16.150Z,-4.80
2019-02-07T09:08:39.341Z,-4.70
2019-02-07T09:14:05.116Z,-4.70
2019-02-07T09:19:28.228Z,-4.60
2019-02-07T09:24:57.253Z,-4.50
2019-02-07T09:30:20.484Z,-4.20
2019-02-07T09:36:05.487Z,-4.20
2019-02-07T09:41:25.716Z,-4.10
2019-02-07T09:46:56.080Z,-3.90
2019-02-07T09:52:20.458Z,-3.70
2019-02-07T09:57:51.283Z,-3.70
2019-02-07T10:03:27.633Z,-3.80
2019-02-07T10:09:10.458Z,-3.80
2019-02-07T10:14:43.782Z,-3.60
2019-02-07T10:20:08.598Z,-3.60
2019-02-07T10:25:31.950Z,-3.40
2019-02-07T10:30:54.787Z,-3.40
2019-02-07T10:36:20.363Z,-3.30
2019-02-07T10:41:41.842Z,-3.10
2019-02-07T10:47:07.881Z,-3.20
2019-02-07T10:52:50.760Z,-3.10
2019-02-07T10:58:14.049Z,-3.10
2019-02-07T11:03:37.131Z,-3.00
2019-02-07T11:09:02.189Z,-2.80
2019-02-07T11:14:37.180Z,-2.70
2019-02-07T11:20:01.435Z,-2.70
2019-02-07T11:25:27.212Z,-2.60
2019-02-07T11:30:54.255Z,-2.60
2019-02-07T11:36:33.603Z,-2.60
2019-02-07T11:42:15.987Z,-2.80
2019-02-07T11:47:43.244Z,-2.70
2019-02-07T11:53:01.163Z,-2.70
2019-02-07T11:58:43.557Z,-2.60
2019-02-07T12:04:02.626Z,-2.60
2019-02-07T12:25:48.218Z,-2.40
2019-02-07T12:31:13.203Z,-2.30
2019-02-07T12:47:15.655Z,-2.20
2019-02-07T12:58:02.996Z,-2.10
2019-02-07T13:25:17.695Z,-2.20
2019-02-07T13:30:45.108Z,-2.20
2019-02-07T13:41:21.871Z,-2.00
2019-02-07T13:46:50.555Z,-2.10
2019-02-07T13:57:41.507Z,-2.00
2019-02-07T14:03:07.451Z,-2.10
2019-02-07T14:08:38.258Z,-2.00
2019-02-07T14:13:55.285Z,-2.00
2019-02-07T14:19:18.448Z,-2.10
2019-02-07T14:24:41.640Z,-2.10
2019-02-07T14:30:05.888Z,-2.10
2019-02-07T14:35:30.717Z,-2.00
2019-02-07T14:46:13.948Z,-1.90
2019-02-07T14:51:19.264Z,-1.90
2019-02-07T14:56:24.895Z,-1.90
2019-02-07T15:06:34.947Z,-1.80
2019-02-07T15:11:40.295Z,-1.80
2019-02-07T15:16:45.674Z,-1.80
2019-02-07T15:21:50.994Z,-1.80
2019-02-07T15:26:56.503Z,-1.80
2019-02-07T15:32:03.295Z,-1.80
2019-02-07T15:37:08.869Z,-1.80
2019-02-07T15:42:14.570Z,-1.70
2019-02-07T15:47:19.939Z,-1.70
2019-02-07T15:52:25.643Z,-1.70
2019-02-07T15:57:31.199Z,-1.70
2019-02-07T16:02:43.740Z,-1.70
2019-02-07T16:07:49.068Z,-1.70
2019-02-07T16:12:54.434Z,-1.60
2019-02-07T16:23:04.735Z,-1.60
2019-02-07T16:28:10.456Z,-1.60
2019-02-07T17:03:47.192Z,-1.20
2019-02-07T17:08:52.763Z,-1.20
2019-02-07T17:19:02.915Z,-1.10
2019-02-07T17:39:28.333Z,-1.00
2019-02-07T17:44:35.156Z,-0.90
2019-02-07T17:49:41.522Z,-0.90
2019-02-07T17:54:47.791Z,-0.80
2019-02-07T17:59:54.112Z,-0.80
2019-02-07T18:05:00.342Z,-0.80
2019-02-07T18:10:09.021Z,-0.70
2019-02-07T18:20:21.195Z,-0.60
2019-02-07T18:25:27.900Z,-0.60
2019-02-07T18:30:33.653Z,-0.60
2019-02-07T18:35:38.983Z,-0.60
2019-02-07T18:40:44.282Z,-0.60
2019-02-07T18:45:49.584Z,-0.50
2019-02-07T18:50:54.895Z,-0.50
2019-02-07T18:56:00.406Z,-0.50
2019-02-07T19:01:05.819Z,-0.50
2019-02-07T19:06:11.131Z,-0.50
2019-02-07T19:11:16.442Z,-0.40
2019-02-07T19:16:21.749Z,-0.30
2019-02-07T19:21:27.105Z,-0.30
2019-02-07T19:26:32.412Z,-0.30
2019-02-07T19:31:37.722Z,-0.20
2019-02-07T19:41:47.806Z,-0.20
2019-02-07T19:46:53.245Z,-0.20
2019-02-07T19:52:07.996Z,-0.20
2019-02-07T19:57:05.791Z,-0.20
2019-02-07T20:02:11.164Z,-0.10
2019-02-07T20:07:16.496Z,-0.10
2019-02-07T20:12:21.818Z,-0.10
2019-02-07T20:17:28.190Z,-0.10
2019-02-07T20:22:33.563Z,-0.10
2019-02-07T20:27:38.987Z,2.10
2019-02-07T20:32:44.390Z,0.00
2019-02-07T20:37:49.962Z,0.00
2019-02-07T20:42:55.415Z,0.00
2019-02-07T20:48:01.099Z,0.00
2019-02-07T20:53:08.152Z,0.00
2019-02-07T20:58:13.558Z,0.00
2019-02-07T21:03:18.943Z,0.00
2019-02-07T21:08:24.533Z,0.10
2019-02-07T21:13:29.898Z,0.00
2019-02-07T21:18:35.422Z,0.10
2019-02-07T21:23:40.843Z,0.10
2019-02-07T21:28:46.296Z,0.10
2019-02-07T21:33:51.842Z,0.10
2019-02-07T21:38:57.642Z,0.10
2019-02-07T21:44:03.430Z,0.10
2019-02-07T21:49:08.865Z,0.10
2019-02-07T21:54:14.859Z,0.10
2019-02-07T21:59:20.330Z,0.10
2019-02-07T22:04:26.383Z,0.10
2019-02-07T22:09:32.268Z,0.10
2019-02-07T22:14:38.882Z,0.20
2019-02-07T22:19:44.327Z,0.10
2019-02-07T22:24:50.087Z,0.20
2019-02-07T22:29:55.491Z,0.20
2019-02-07T22:35:01.186Z,0.10
2019-02-07T22:40:10.351Z,0.20
2019-02-07T22:45:16.523Z,0.20
2019-02-07T22:50:27.651Z,0.10
2019-02-07T22:55:32.990Z,0.10
2019-02-07T23:01:24.899Z,0.10
2019-02-07T23:06:30.585Z,0.10
2019-02-07T23:11:36.063Z,0.20
2019-02-07T23:16:41.665Z,0.20
2019-02-07T23:21:47.939Z,0.20
2019-02-07T23:26:53.362Z,0.20
2019-02-07T23:31:58.664Z,0.20
2019-02-07T23:37:04.322Z,0.20
2019-02-07T23:42:09.992Z,0.20
2019-02-07T23:47:15.938Z,0.20
2019-02-07T23:52:21.255Z,0.20
2019-02-07T23:57:26.866Z,0.20
